VE89 weather

Darbhanga Airport
Bihar, India

Public forecast

Using degrees Celsius for public forecast. Weather courtesy of forecast.io.

Closest aviation weather report (METAR) to Darbhanga Airport

Closest report is Lok Nayak Jayaprakash Airport, 57.5 nm (106.5 km) SW. Retrieved 2019/10/22 13:30 UTC (13 minutes ago):

VEPT 221330Z 22004KT 3500 HZ SCT018 BKN100 26/22 Q1008 NOSIG

Closest aviation forecast (TAF) to Darbhanga Airport

Forecast is more than 6 hours old.

Closest forecast is Lok Nayak Jayaprakash Airport, 57.5 nm (106.5 km) SW. Retrieved 2019/10/22 06:36 UTC (7 hours ago):

TAF VEPT 220500Z 2206/2312 23005KT 1600 BR SCT018 BKN100 BECMG 2213/2215 29004KT 3000HZ SCT025 BKN100 BECMG 2223/2301 00000KT 1200 MIFG SCT025 BKN100 BECMG 2304/2306 29003KT 2000 HZ SCT018 BKN100 BECMG 2308/2310 3500 HZ SCT025 BKN100